CSAV Lonquen — A8OT2 — position and weather

sailwx.info

Track history (hours):
 
Tides and Currents Weather Stations Pressure Air Temp Water Temp Dewpoint Dewpoint Depression Visibility Wind Speed Wind Dir Waves Ship Positions

CSAV Lonquen

Last reported at 2017-May-21 23:31 UTC. Time now 2017-May-27 00:34 UTC.
Position N 01°53' E 102°24'.

Length 261 m; draft 12.8 m.

Type: Ship (hazmat cat D). MMSI: 636091501.

Date/timePositionNaut miles runAvg speedWind from/ knotsBaromVisibWave heightAir tempDewpointWater temp
2017-May-21 23:31N 01°53' E 102°24'021.4
2017-May-21 23:30N 01°53' E 102°24'1620.2
2017-May-21 22:42N 01°46' E 102°39'920.1
2017-May-21 22:15N 01°42' E 102°47'4820.8
2017-May-21 19:58N 01°14' E 103°25'1020.9
2017-May-21 19:30N 01°12' E 103°34'612.0
2017-May-21 19:00N 01°13' E 103°40'611.7
2017-May-21 18:30N 01°17' E 103°45'1 2.7
2017-May-21 18:00N 01°17' E 103°46'0 0.3
2017-May-21 17:30N 01°17' E 103°46'0 0.0
2017-May-21 17:00N 01°17' E 103°46'0 0.0
2017-May-21 16:24N 01°17' E 103°46'0 0.0
2017-May-21 15:54N 01°17' E 103°46'0 0.0
2017-May-21 15:30N 01°17' E 103°46'0 0.0
2017-May-21 15:00N 01°17' E 103°46'0 0.0
2017-May-21 14:30N 01°17' E 103°46'0 0.0
2017-May-21 13:30N 01°17' E 103°46'0 0.0
2017-May-21 12:57N 01°17' E 103°46'0 0.0
2017-May-21 12:30N 01°17' E 103°46'0 0.0
2017-May-21 12:00N 01°17' E 103°46'0 0.0
2017-May-21 11:30N 01°17' E 103°46'0 0.0
2017-May-21 10:57N 01°17' E 103°46'0 0.0
2017-May-21 10:30N 01°17' E 103°46'0 0.0
2017-May-21 10:01N 01°17' E 103°46'0 0.0
2017-May-21 09:30N 01°17' E 103°46'0 0.0
2017-May-21 09:00N 01°17' E 103°46'0 0.0
2017-May-21 08:30N 01°17' E 103°46'0 0.0
2017-May-21 08:00N 01°17' E 103°46'0 0.0
2017-May-21 07:24N 01°17' E 103°46'0 0.0
2017-May-21 06:54N 01°17' E 103°46'0 0.0
2017-May-21 06:30N 01°17' E 103°46'0 0.0
2017-May-21 06:00N 01°17' E 103°46'0 0.0
2017-May-21 05:30N 01°17' E 103°46'0 0.0
2017-May-21 05:00N 01°17' E 103°46'0 0.0
2017-May-21 04:30N 01°17' E 103°46'0 0.0
2017-May-21 04:00N 01°17' E 103°46'0 0.0
2017-May-21 03:30N 01°17' E 103°46'0 0.0
2017-May-21 03:00N 01°17' E 103°46'0 0.0
2017-May-21 02:30N 01°17' E 103°46'0 0.0
2017-May-21 02:00N 01°17' E 103°46'0 0.0
2017-May-21 01:30N 01°17' E 103°46'0 0.0
2017-May-21 01:00N 01°17' E 103°46'0 0.0
2017-May-21 00:30N 01°17' E 103°46'0 0.0
2017-May-21 00:00N 01°17' E 103°46'0 0.0
2017-May-20 23:30N 01°17' E 103°46'1 1.2
2017-May-20 23:00N 01°17' E 103°45'1 1.8
2017-May-20 22:31N 01°16' E 103°45'4 8.7
2017-May-20 22:00N 01°13' E 103°48'611.8
2017-May-20 21:31N 01°13' E 103°54'2 4.6
2017-May-20 20:59N 01°14' E 103°56'4 7.5
2017-May-20 20:29N 01°16' E 103°59'5 9.1
2017-May-20 19:58N 01°16' E 104°04'  
2017-May-15 22:03N 29°41' E 122°28'518.9
2017-May-15 21:49N 29°43' E 122°24'  
Track history (hours):
 
Tides and Currents Weather Stations Pressure Air Temp Water Temp Dewpoint Dewpoint Depression Visibility Wind Speed Wind Dir Waves Ship Positions

CSAV Lonquen

Last reported at 2017-May-21 23:31 UTC. Time now 2017-May-27 00:34 UTC.
Position N 01°53' E 102°24'.

Length 261 m; draft 12.8 m.

Type: Ship (hazmat cat D). MMSI: 636091501.

Date/timePositionNaut miles runAvg speedWind from/ knotsBaromVisibWave heightAir tempDewpointWater temp
2017-May-21 23:31N 01°53' E 102°24'021.4
2017-May-21 23:30N 01°53' E 102°24'1620.2
2017-May-21 22:42N 01°46' E 102°39'920.1
2017-May-21 22:15N 01°42' E 102°47'4820.8
2017-May-21 19:58N 01°14' E 103°25'1020.9
2017-May-21 19:30N 01°12' E 103°34'612.0
2017-May-21 19:00N 01°13' E 103°40'611.7
2017-May-21 18:30N 01°17' E 103°45'1 2.7
2017-May-21 18:00N 01°17' E 103°46'0 0.3
2017-May-21 17:30N 01°17' E 103°46'0 0.0
2017-May-21 17:00N 01°17' E 103°46'0 0.0
2017-May-21 16:24N 01°17' E 103°46'0 0.0
2017-May-21 15:54N 01°17' E 103°46'0 0.0
2017-May-21 15:30N 01°17' E 103°46'0 0.0
2017-May-21 15:00N 01°17' E 103°46'0 0.0
2017-May-21 14:30N 01°17' E 103°46'0 0.0
2017-May-21 13:30N 01°17' E 103°46'0 0.0
2017-May-21 12:57N 01°17' E 103°46'0 0.0
2017-May-21 12:30N 01°17' E 103°46'0 0.0
2017-May-21 12:00N 01°17' E 103°46'0 0.0
2017-May-21 11:30N 01°17' E 103°46'0 0.0
2017-May-21 10:57N 01°17' E 103°46'0 0.0
2017-May-21 10:30N 01°17' E 103°46'0 0.0
2017-May-21 10:01N 01°17' E 103°46'0 0.0
2017-May-21 09:30N 01°17' E 103°46'0 0.0
2017-May-21 09:00N 01°17' E 103°46'0 0.0
2017-May-21 08:30N 01°17' E 103°46'0 0.0
2017-May-21 08:00N 01°17' E 103°46'0 0.0
2017-May-21 07:24N 01°17' E 103°46'0 0.0
2017-May-21 06:54N 01°17' E 103°46'0 0.0
2017-May-21 06:30N 01°17' E 103°46'0 0.0
2017-May-21 06:00N 01°17' E 103°46'0 0.0
2017-May-21 05:30N 01°17' E 103°46'0 0.0
2017-May-21 05:00N 01°17' E 103°46'0 0.0
2017-May-21 04:30N 01°17' E 103°46'0 0.0
2017-May-21 04:00N 01°17' E 103°46'0 0.0
2017-May-21 03:30N 01°17' E 103°46'0 0.0
2017-May-21 03:00N 01°17' E 103°46'0 0.0
2017-May-21 02:30N 01°17' E 103°46'0 0.0
2017-May-21 02:00N 01°17' E 103°46'0 0.0
2017-May-21 01:30N 01°17' E 103°46'0 0.0
2017-May-21 01:00N 01°17' E 103°46'0 0.0
2017-May-21 00:30N 01°17' E 103°46'0 0.0
2017-May-21 00:00N 01°17' E 103°46'0 0.0
2017-May-20 23:30N 01°17' E 103°46'1 1.2
2017-May-20 23:00N 01°17' E 103°45'1 1.8
2017-May-20 22:31N 01°16' E 103°45'4 8.7
2017-May-20 22:00N 01°13' E 103°48'611.8
2017-May-20 21:31N 01°13' E 103°54'2 4.6
2017-May-20 20:59N 01°14' E 103°56'4 7.5
2017-May-20 20:29N 01°16' E 103°59'5 9.1
2017-May-20 19:58N 01°16' E 104°04'  
2017-May-15 22:03N 29°41' E 122°28'518.9
2017-May-15 21:49N 29°43' E 122°24'  

Dump ship's entire track history